sensor_id;sensor_type;location;lat;lon;timestamp;pressure;altitude;pressure_sealevel;temperature;humidity
61568;BME280;47462;59.172;17.196;2023-02-03T09:14:19;100696.69;;;-3.46;77.11
61568;BME280;47462;59.172;17.196;2023-02-03T09:16:44;100694.34;;;-3.68;75.79
61568;BME280;47462;59.172;17.196;2023-02-03T09:19:10;100735.63;;;-3.80;75.73
61568;BME280;47462;59.172;17.196;2023-02-03T09:21:37;100710.75;;;-4.16;75.68
61568;BME280;47462;59.172;17.196;2023-02-03T09:24:03;100719.88;;;-4.23;76.00
61568;BME280;47462;59.172;17.196;2023-02-03T09:26:28;100746.34;;;-4.19;76.20
61568;BME280;47462;59.172;17.196;2023-02-03T09:28:54;100550.56;;;-5.42;76.20
61568;BME280;47462;59.172;17.196;2023-02-03T09:31:19;100749.69;;;-4.20;75.98
61568;BME280;47462;59.172;17.196;2023-02-03T09:33:45;100756.72;;;-4.13;75.85
61568;BME280;47462;59.172;17.196;2023-02-03T09:36:11;100757.63;;;-4.11;75.94
61568;BME280;47462;59.172;17.196;2023-02-03T09:38:36;100727.50;;;-4.23;76.16
61568;BME280;47462;59.172;17.196;2023-02-03T09:46:41;100766.47;;;-3.72;75.58
61568;BME280;47462;59.172;17.196;2023-02-03T09:49:18;100769.28;;;-3.63;76.04
61568;BME280;47462;59.172;17.196;2023-02-03T09:51:49;100762.78;;;-3.53;75.67
61568;BME280;47462;59.172;17.196;2023-02-03T09:57:28;100758.09;;;-3.39;75.93
61568;BME280;47462;59.172;17.196;2023-02-03T09:59:57;100762.34;;;-3.38;75.69
61568;BME280;47462;59.172;17.196;2023-02-03T10:13:09;100769.78;;;-2.85;75.10
61568;BME280;47462;59.172;17.196;2023-02-03T10:18:21;100725.84;;;-3.06;75.21
61568;BME280;47462;59.172;17.196;2023-02-03T10:20:52;100779.44;;;-2.75;75.11
61568;BME280;47462;59.172;17.196;2023-02-03T10:23:25;100774.50;;;-2.69;75.47
61568;BME280;47462;59.172;17.196;2023-02-03T10:25:53;100766.84;;;-2.69;75.58
61568;BME280;47462;59.172;17.196;2023-02-03T10:28:47;100736.63;;;-2.84;75.61
61568;BME280;47462;59.172;17.196;2023-02-03T10:31:19;100776.53;;;-2.57;75.24
61568;BME280;47462;59.172;17.196;2023-02-03T10:33:45;100750.66;;;-2.68;75.37
61568;BME280;47462;59.172;17.196;2023-02-03T10:41:28;100759.50;;;-2.57;75.05
61568;BME280;47462;59.172;17.196;2023-02-03T10:43:54;100753.59;;;-2.54;75.28
61568;BME280;47462;59.172;17.196;2023-02-03T10:46:32;100745.16;;;-2.50;75.61
61568;BME280;47462;59.172;17.196;2023-02-03T10:48:59;100760.06;;;-2.34;75.36
61568;BME280;47462;59.172;17.196;2023-02-03T10:51:33;100754.28;;;-2.26;75.51
61568;BME280;47462;59.172;17.196;2023-02-03T10:54:00;100763.13;;;-2.12;75.43
61568;BME280;47462;59.172;17.196;2023-02-03T10:56:29;100759.06;;;-2.04;75.27
61568;BME280;47462;59.172;17.196;2023-02-03T10:58:58;100734.13;;;-2.14;75.47
61568;BME280;47462;59.172;17.196;2023-02-03T11:01:41;100732.59;;;-2.06;75.40
61568;BME280;47462;59.172;17.196;2023-02-03T11:04:29;100752.72;;;-1.83;75.49
61568;BME280;47462;59.172;17.196;2023-02-03T11:06:57;100739.69;;;-1.94;75.37
61568;BME280;47462;59.172;17.196;2023-02-03T11:09:38;100752.88;;;-1.77;75.33
61568;BME280;47462;59.172;17.196;2023-02-03T11:12:19;100745.13;;;-1.80;75.50
61568;BME280;47462;59.172;17.196;2023-02-03T11:14:47;100759.78;;;-1.73;75.67
61568;BME280;47462;59.172;17.196;2023-02-03T11:17:24;100760.69;;;-1.71;75.90
61568;BME280;47462;59.172;17.196;2023-02-03T11:20:04;100746.03;;;-1.76;76.00
61568;BME280;47462;59.172;17.196;2023-02-03T11:22:37;100761.53;;;-1.70;75.80
61568;BME280;47462;59.172;17.196;2023-02-03T11:25:16;100776.22;;;-1.62;75.88
61568;BME280;47462;59.172;17.196;2023-02-03T11:27:42;100764.13;;;-1.69;75.68
61568;BME280;47462;59.172;17.196;2023-02-03T11:30:18;100773.84;;;-1.54;76.10
61568;BME280;47462;59.172;17.196;2023-02-03T11:32:46;100781.66;;;-1.48;76.04
61568;BME280;47462;59.172;17.196;2023-02-03T11:37:45;100779.94;;;-1.47;76.10
61568;BME280;47462;59.172;17.196;2023-02-03T11:42:42;100786.19;;;-1.36;75.81
61568;BME280;47462;59.172;17.196;2023-02-03T11:45:38;100793.16;;;-1.29;76.16
61568;BME280;47462;59.172;17.196;2023-02-03T11:48:31;100692.97;;;-1.87;75.55
61568;BME280;47462;59.172;17.196;2023-02-03T11:51:24;100805.31;;;-1.18;75.55
61568;BME280;47462;59.172;17.196;2023-02-03T11:56:53;100814.03;;;-1.10;75.98
61568;BME280;47462;59.172;17.196;2023-02-03T12:07:35;100824.63;;;-0.93;74.93
61568;BME280;47462;59.172;17.196;2023-02-03T12:10:36;100838.28;;;-0.93;75.17
61568;BME280;47462;59.172;17.196;2023-02-03T12:18:36;100813.34;;;-1.01;74.91
61568;BME280;47462;59.172;17.196;2023-02-03T12:21:35;100869.50;;;-0.69;75.02
61568;BME280;47462;59.172;17.196;2023-02-03T12:29:30;100861.38;;;-0.91;74.74
61568;BME280;47462;59.172;17.196;2023-02-03T12:32:23;100884.81;;;-0.73;74.67
61568;BME280;47462;59.172;17.196;2023-02-03T12:37:32;100903.66;;;-0.69;74.80
61568;BME280;47462;59.172;17.196;2023-02-03T12:40:04;100910.50;;;-0.69;74.46
61568;BME280;47462;59.172;17.196;2023-02-03T12:42:41;100925.94;;;-0.66;74.62
61568;BME280;47462;59.172;17.196;2023-02-03T12:45:15;100915.75;;;-0.63;74.30
61568;BME280;47462;59.172;17.196;2023-02-03T12:47:46;100892.59;;;-0.68;74.17
61568;BME280;47462;59.172;17.196;2023-02-03T12:52:56;100946.88;;;-0.46;73.86
61568;BME280;47462;59.172;17.196;2023-02-03T12:58:04;100969.88;;;-0.49;73.84
61568;BME280;47462;59.172;17.196;2023-02-03T13:00:44;100914.56;;;-0.81;74.18
61568;BME280;47462;59.172;17.196;2023-02-03T13:03:42;100977.72;;;-0.42;74.10
61568;BME280;47462;59.172;17.196;2023-02-03T13:17:50;101018.72;;;-0.43;73.56
61568;BME280;47462;59.172;17.196;2023-02-03T13:20:23;101029.63;;;-0.53;73.41
61568;BME280;47462;59.172;17.196;2023-02-03T13:22:49;101035.69;;;-0.50;73.90
61568;BME280;47462;59.172;17.196;2023-02-03T13:25:33;101034.63;;;-0.60;73.91
61568;BME280;47462;59.172;17.196;2023-02-03T13:28:18;101043.84;;;-0.66;74.37
61568;BME280;47462;59.172;17.196;2023-02-03T13:39:29;101068.47;;;-0.73;74.78
61568;BME280;47462;59.172;17.196;2023-02-03T13:44:45;101078.75;;;-0.73;74.57
61568;BME280;47462;59.172;17.196;2023-02-03T13:47:17;101095.91;;;-0.69;74.56
61568;BME280;47462;59.172;17.196;2023-02-03T13:49:45;101084.81;;;-0.68;74.61
61568;BME280;47462;59.172;17.196;2023-02-03T13:52:25;101095.06;;;-0.68;74.33
61568;BME280;47462;59.172;17.196;2023-02-03T13:54:51;101089.97;;;-0.66;74.71
61568;BME280;47462;59.172;17.196;2023-02-03T13:57:20;101092.59;;;-0.65;74.45
61568;BME280;47462;59.172;17.196;2023-02-03T13:59:46;101102.94;;;-0.60;74.19
61568;BME280;47462;59.172;17.196;2023-02-03T14:04:51;101106.28;;;-0.64;74.13
61568;BME280;47462;59.172;17.196;2023-02-03T14:12:34;101102.06;;;-0.62;74.20
61568;BME280;47462;59.172;17.196;2023-02-03T14:20:36;101071.94;;;-1.06;74.68
61568;BME280;47462;59.172;17.196;2023-02-03T14:23:10;101137.59;;;-0.76;74.73
61568;BME280;47462;59.172;17.196;2023-02-03T14:26:04;101156.41;;;-0.76;74.48
61568;BME280;47462;59.172;17.196;2023-02-03T14:28:41;101148.44;;;-0.86;74.89
61568;BME280;47462;59.172;17.196;2023-02-03T14:31:13;101172.41;;;-0.84;75.06
61568;BME280;47462;59.172;17.196;2023-02-03T14:38:52;101160.59;;;-1.13;74.90
61568;BME280;47462;59.172;17.196;2023-02-03T14:41:26;101175.09;;;-1.13;75.12
61568;BME280;47462;59.172;17.196;2023-02-03T14:44:06;101221.78;;;-0.92;75.37
61568;BME280;47462;59.172;17.196;2023-02-03T14:49:22;101222.69;;;-0.90;75.30
61568;BME280;47462;59.172;17.196;2023-02-03T14:57:29;101241.47;;;-0.89;75.18
61568;BME280;47462;59.172;17.196;2023-02-03T15:00:00;101215.53;;;-1.01;75.16
61568;BME280;47462;59.172;17.196;2023-02-03T15:02:29;101240.72;;;-0.85;74.86
61568;BME280;47462;59.172;17.196;2023-02-03T15:10:23;101257.56;;;-0.95;74.88
61568;BME280;47462;59.172;17.196;2023-02-03T15:12:50;101260.03;;;-0.98;75.17
61568;BME280;47462;59.172;17.196;2023-02-03T15:15:27;101253.88;;;-1.04;75.33
61568;BME280;47462;59.172;17.196;2023-02-03T15:17:55;101249.47;;;-1.10;75.21
61568;BME280;47462;59.172;17.196;2023-02-03T15:20:36;101279.94;;;-0.87;75.10
61568;BME280;47462;59.172;17.196;2023-02-03T15:23:25;101289.22;;;-0.93;74.98
61568;BME280;47462;59.172;17.196;2023-02-03T15:25:59;101279.56;;;-1.01;74.79
61568;BME280;47462;59.172;17.196;2023-02-03T15:28:27;101307.28;;;-0.88;74.74
61568;BME280;47462;59.172;17.196;2023-02-03T15:33:43;101320.56;;;-1.01;74.95
61568;BME280;47462;59.172;17.196;2023-02-03T15:36:16;101352.91;;;-1.05;75.08
61568;BME280;47462;59.172;17.196;2023-02-03T15:38:50;101345.09;;;-1.10;74.93
61568;BME280;47462;59.172;17.196;2023-02-03T15:41:22;101349.31;;;-1.12;74.97
61568;BME280;47462;59.172;17.196;2023-02-03T15:44:00;101342.13;;;-1.23;74.80
61568;BME280;47462;59.172;17.196;2023-02-03T15:46:49;101342.81;;;-1.29;74.68
61568;BME280;47462;59.172;17.196;2023-02-03T15:49:24;101348.06;;;-1.24;74.66
61568;BME280;47462;59.172;17.196;2023-02-03T15:52:02;101364.56;;;-1.16;74.71
61568;BME280;47462;59.172;17.196;2023-02-03T15:54:35;101367.84;;;-1.20;74.76
61568;BME280;47462;59.172;17.196;2023-02-03T15:57:14;101380.50;;;-1.25;74.88
61568;BME280;47462;59.172;17.196;2023-02-03T15:59:43;101384.84;;;-1.22;75.10
61568;BME280;47462;59.172;17.196;2023-02-03T16:02:19;101377.75;;;-1.31;74.97
61568;BME280;47462;59.172;17.196;2023-02-03T16:04:46;101385.47;;;-1.30;74.43
61568;BME280;47462;59.172;17.196;2023-02-03T16:07:26;101382.00;;;-1.32;74.90
61568;BME280;47462;59.172;17.196;2023-02-03T16:09:55;101405.28;;;-1.24;74.90
61568;BME280;47462;59.172;17.196;2023-02-03T16:12:29;101414.69;;;-1.23;74.71
61568;BME280;47462;59.172;17.196;2023-02-03T16:14:56;101409.47;;;-1.26;74.63
61568;BME280;47462;59.172;17.196;2023-02-03T16:22:44;101417.50;;;-1.42;75.17
61568;BME280;47462;59.172;17.196;2023-02-03T16:25:25;101423.22;;;-1.51;75.40
61568;BME280;47462;59.172;17.196;2023-02-03T16:31:00;101434.91;;;-1.58;75.51
61568;BME280;47462;59.172;17.196;2023-02-03T16:33:48;101382.38;;;-2.00;75.29
61568;BME280;47462;59.172;17.196;2023-02-03T16:36:38;101482.91;;;-1.52;75.51
61568;BME280;47462;59.172;17.196;2023-02-03T16:39:24;101474.16;;;-1.59;75.94
61568;BME280;47462;59.172;17.196;2023-02-03T16:42:14;101493.28;;;-1.48;75.90
61568;BME280;47462;59.172;17.196;2023-02-03T16:44:59;101484.13;;;-1.67;75.83
61568;BME280;47462;59.172;17.196;2023-02-03T16:47:44;101509.09;;;-1.59;75.82
61568;BME280;47462;59.172;17.196;2023-02-03T16:50:28;101533.28;;;-1.51;76.41
61568;BME280;47462;59.172;17.196;2023-02-03T16:53:16;101534.31;;;-1.46;76.04
61568;BME280;47462;59.172;17.196;2023-02-03T16:55:42;101529.78;;;-1.53;75.81
61568;BME280;47462;59.172;17.196;2023-02-03T16:58:08;101523.66;;;-1.58;75.48
61568;BME280;47462;59.172;17.196;2023-02-03T17:00:36;101531.44;;;-1.55;75.64
61568;BME280;47462;59.172;17.196;2023-02-03T17:03:05;101518.13;;;-1.71;75.30
61568;BME280;47462;59.172;17.196;2023-02-03T17:05:30;101543.69;;;-1.71;75.71
61568;BME280;47462;59.172;17.196;2023-02-03T17:07:56;101490.75;;;-1.98;75.59
61568;BME280;47462;59.172;17.196;2023-02-03T17:10:21;101580.22;;;-1.51;75.43
61568;BME280;47462;59.172;17.196;2023-02-03T17:12:47;101590.31;;;-1.55;75.24
61568;BME280;47462;59.172;17.196;2023-02-03T17:15:15;101593.50;;;-1.61;75.17
61568;BME280;47462;59.172;17.196;2023-02-03T17:17:40;101595.09;;;-1.65;75.33
61568;BME280;47462;59.172;17.196;2023-02-03T17:20:06;101568.28;;;-1.76;75.32
61568;BME280;47462;59.172;17.196;2023-02-03T17:22:31;101595.84;;;-1.67;74.98
61568;BME280;47462;59.172;17.196;2023-02-03T17:24:58;101602.56;;;-1.71;75.38
61568;BME280;47462;59.172;17.196;2023-02-03T17:27:23;101609.16;;;-1.77;75.05
61568;BME280;47462;59.172;17.196;2023-02-03T17:29:49;101625.91;;;-1.86;75.29
61568;BME280;47462;59.172;17.196;2023-02-03T17:32:14;101574.59;;;-2.13;74.66
61568;BME280;47462;59.172;17.196;2023-02-03T17:34:41;101601.34;;;-2.05;74.55
61568;BME280;47462;59.172;17.196;2023-02-03T17:37:07;101611.50;;;-2.06;74.91
61568;BME280;47462;59.172;17.196;2023-02-03T17:39:32;101612.03;;;-2.15;74.67
61568;BME280;47462;59.172;17.196;2023-02-03T17:41:58;101665.50;;;-1.99;74.41
61568;BME280;47462;59.172;17.196;2023-02-03T17:44:25;101650.22;;;-1.97;74.20
61568;BME280;47462;59.172;17.196;2023-02-03T17:46:50;101659.50;;;-1.99;73.88
61568;BME280;47462;59.172;17.196;2023-02-03T17:49:16;101656.53;;;-2.10;74.04
61568;BME280;47462;59.172;17.196;2023-02-03T17:51:41;101665.59;;;-2.18;74.03
61568;BME280;47462;59.172;17.196;2023-02-03T17:54:06;101666.59;;;-2.15;73.52
61568;BME280;47462;59.172;17.196;2023-02-03T17:56:33;101681.09;;;-1.92;73.38
61568;BME280;47462;59.172;17.196;2023-02-03T17:59:01;101683.94;;;-1.85;72.84
61568;BME280;47462;59.172;17.196;2023-02-03T18:01:28;101660.03;;;-2.08;71.99
61568;BME280;47462;59.172;17.196;2023-02-03T18:03:55;101660.50;;;-1.95;71.94
61568;BME280;47462;59.172;17.196;2023-02-03T18:06:23;101693.78;;;-1.73;71.33
61568;BME280;47462;59.172;17.196;2023-02-03T18:08:49;101697.25;;;-1.71;71.12
61568;BME280;47462;59.172;17.196;2023-02-03T18:11:16;101693.53;;;-1.79;70.60
61568;BME280;47462;59.172;17.196;2023-02-03T18:13:44;101684.47;;;-1.93;70.55
61568;BME280;47462;59.172;17.196;2023-02-03T18:16:13;101708.91;;;-1.79;70.69
61568;BME280;47462;59.172;17.196;2023-02-03T18:18:42;101565.06;;;-2.62;70.73
61568;BME280;47462;59.172;17.196;2023-02-03T18:21:12;101646.63;;;-2.25;70.56
61568;BME280;47462;59.172;17.196;2023-02-03T18:23:38;101740.69;;;-1.72;70.37
61568;BME280;47462;59.172;17.196;2023-02-03T18:26:05;101748.66;;;-1.65;69.70
61568;BME280;47462;59.172;17.196;2023-02-03T18:28:32;101740.69;;;-1.72;69.11
61568;BME280;47462;59.172;17.196;2023-02-03T18:31:06;101758.06;;;-1.65;69.04
61568;BME280;47462;59.172;17.196;2023-02-03T18:33:33;101756.75;;;-1.54;68.85
61568;BME280;47462;59.172;17.196;2023-02-03T18:36:01;101775.78;;;-1.47;68.53
61568;BME280;47462;59.172;17.196;2023-02-03T18:38:27;101778.94;;;-1.54;68.49
61568;BME280;47462;59.172;17.196;2023-02-03T18:41:09;101767.84;;;-1.53;68.47
61568;BME280;47462;59.172;17.196;2023-02-03T18:43:35;101757.81;;;-1.71;67.71
61568;BME280;47462;59.172;17.196;2023-02-03T18:46:08;101776.81;;;-1.65;67.52
61568;BME280;47462;59.172;17.196;2023-02-03T18:48:37;101774.16;;;-1.68;66.64
61568;BME280;47462;59.172;17.196;2023-02-03T18:51:07;101753.44;;;-1.74;66.28
61568;BME280;47462;59.172;17.196;2023-02-03T18:53:34;101761.34;;;-1.68;65.77
61568;BME280;47462;59.172;17.196;2023-02-03T18:56:00;101801.38;;;-1.47;66.49
61568;BME280;47462;59.172;17.196;2023-02-03T18:58:25;101787.25;;;-1.60;66.29
61568;BME280;47462;59.172;17.196;2023-02-03T19:00:51;101735.19;;;-1.83;66.02
61568;BME280;47462;59.172;17.196;2023-02-03T19:03:16;101811.19;;;-1.58;65.99
61568;BME280;47462;59.172;17.196;2023-02-03T19:05:43;101799.00;;;-1.65;66.25
61568;BME280;47462;59.172;17.196;2023-02-03T19:08:08;101811.09;;;-1.61;66.18
61568;BME280;47462;59.172;17.196;2023-02-03T19:10:34;101792.28;;;-1.84;66.58
61568;BME280;47462;59.172;17.196;2023-02-03T19:13:00;101833.88;;;-1.67;67.15
61568;BME280;47462;59.172;17.196;2023-02-03T19:15:25;101845.06;;;-1.65;66.88
61568;BME280;47462;59.172;17.196;2023-02-03T19:17:51;101720.63;;;-2.49;66.84
61568;BME280;47462;59.172;17.196;2023-02-03T19:20:16;101863.06;;;-1.64;66.97
61568;BME280;47462;59.172;17.196;2023-02-03T19:22:42;101854.34;;;-1.67;66.88
61568;BME280;47462;59.172;17.196;2023-02-03T19:25:07;101855.75;;;-1.75;67.08
61568;BME280;47462;59.172;17.196;2023-02-03T19:27:33;101888.66;;;-1.64;67.81
61568;BME280;47462;59.172;17.196;2023-02-03T19:29:58;101890.19;;;-1.67;68.05
61568;BME280;47462;59.172;17.196;2023-02-03T19:32:26;101905.72;;;-1.63;68.03
61568;BME280;47462;59.172;17.196;2023-02-03T19:34:52;101849.81;;;-1.95;68.33
61568;BME280;47462;59.172;17.196;2023-02-03T19:37:17;101901.75;;;-1.56;68.48
61568;BME280;47462;59.172;17.196;2023-02-03T19:39:43;101921.34;;;-1.56;68.52
61568;BME280;47462;59.172;17.196;2023-02-03T19:42:12;101886.16;;;-1.83;68.09
61568;BME280;47462;59.172;17.196;2023-02-03T19:44:37;101905.34;;;-1.72;68.33
61568;BME280;47462;59.172;17.196;2023-02-03T19:47:03;101935.97;;;-1.54;68.10
61568;BME280;47462;59.172;17.196;2023-02-03T19:49:29;101933.22;;;-1.58;67.73
61568;BME280;47462;59.172;17.196;2023-02-03T19:51:54;101930.94;;;-1.72;67.71
61568;BME280;47462;59.172;17.196;2023-02-03T19:54:19;101937.97;;;-1.68;68.28
61568;BME280;47462;59.172;17.196;2023-02-03T19:56:45;101909.31;;;-1.80;67.57
61568;BME280;47462;59.172;17.196;2023-02-03T19:59:10;101936.19;;;-1.69;67.56
61568;BME280;47462;59.172;17.196;2023-02-03T20:01:36;101942.94;;;-1.71;67.67
61568;BME280;47462;59.172;17.196;2023-02-03T20:04:02;101938.94;;;-1.85;67.59
61568;BME280;47462;59.172;17.196;2023-02-03T20:06:28;101956.94;;;-1.84;67.28
61568;BME280;47462;59.172;17.196;2023-02-03T20:08:56;101966.00;;;-1.90;67.60
61568;BME280;47462;59.172;17.196;2023-02-03T20:11:23;101852.09;;;-2.63;67.09
61568;BME280;47462;59.172;17.196;2023-02-03T20:13:49;101956.19;;;-2.01;67.05
61568;BME280;47462;59.172;17.196;2023-02-03T20:16:14;101987.97;;;-1.95;66.55
61568;BME280;47462;59.172;17.196;2023-02-03T20:18:40;101959.50;;;-2.23;66.47
61568;BME280;47462;59.172;17.196;2023-02-03T20:21:05;101951.31;;;-2.16;66.06
61568;BME280;47462;59.172;17.196;2023-02-03T20:23:31;101989.50;;;-1.99;66.13
61568;BME280;47462;59.172;17.196;2023-02-03T20:26:00;101999.59;;;-2.02;66.07
61568;BME280;47462;59.172;17.196;2023-02-03T20:28:26;101996.78;;;-2.08;66.11
61568;BME280;47462;59.172;17.196;2023-02-03T20:30:53;101969.66;;;-2.24;65.57
61568;BME280;47462;59.172;17.196;2023-02-03T20:33:21;102004.00;;;-2.00;65.18
61568;BME280;47462;59.172;17.196;2023-02-03T20:35:47;101948.06;;;-2.31;64.91
61568;BME280;47462;59.172;17.196;2023-02-03T20:38:13;102029.84;;;-1.93;64.99
61568;BME280;47462;59.172;17.196;2023-02-03T20:40:41;101999.19;;;-2.11;64.73
61568;BME280;47462;59.172;17.196;2023-02-03T20:43:18;101958.75;;;-2.40;64.05
61568;BME280;47462;59.172;17.196;2023-02-03T20:45:44;102021.34;;;-2.12;64.30
61568;BME280;47462;59.172;17.196;2023-02-03T20:48:11;102015.38;;;-2.12;64.43
61568;BME280;47462;59.172;17.196;2023-02-03T20:50:38;102059.47;;;-1.99;64.33
61568;BME280;47462;59.172;17.196;2023-02-03T20:53:28;101994.41;;;-2.43;64.50
61568;BME280;47462;59.172;17.196;2023-02-03T20:55:57;102067.66;;;-2.06;64.47
61568;BME280;47462;59.172;17.196;2023-02-03T20:58:26;102080.84;;;-2.16;64.32
61568;BME280;47462;59.172;17.196;2023-02-03T21:00:53;102083.88;;;-2.25;64.08
61568;BME280;47462;59.172;17.196;2023-02-03T21:03:22;102086.16;;;-2.31;64.11
61568;BME280;47462;59.172;17.196;2023-02-03T21:06:14;102042.50;;;-2.72;64.14
61568;BME280;47462;59.172;17.196;2023-02-03T21:08:41;102095.06;;;-2.41;64.30
61568;BME280;47462;59.172;17.196;2023-02-03T21:11:15;102087.78;;;-2.51;64.00
61568;BME280;47462;59.172;17.196;2023-02-03T21:13:43;102102.69;;;-2.60;64.46
61568;BME280;47462;59.172;17.196;2023-02-03T21:16:32;102117.28;;;-2.58;63.94
61568;BME280;47462;59.172;17.196;2023-02-03T21:18:59;102117.19;;;-2.59;64.16
61568;BME280;47462;59.172;17.196;2023-02-03T21:21:38;102126.25;;;-2.66;64.60
61568;BME280;47462;59.172;17.196;2023-02-03T21:26:47;102136.97;;;-2.73;64.47
61568;BME280;47462;59.172;17.196;2023-02-03T21:29:24;102140.91;;;-2.80;64.63
61568;BME280;47462;59.172;17.196;2023-02-03T21:31:51;102106.00;;;-2.97;64.82
61568;BME280;47462;59.172;17.196;2023-02-03T21:34:24;102146.81;;;-2.81;64.67
61568;BME280;47462;59.172;17.196;2023-02-03T21:36:50;102150.00;;;-2.85;64.69
61568;BME280;47462;59.172;17.196;2023-02-03T21:39:32;102168.34;;;-2.94;64.82
61568;BME280;47462;59.172;17.196;2023-02-03T21:42:32;102177.34;;;-3.00;64.46
61568;BME280;47462;59.172;17.196;2023-02-03T21:47:42;102189.66;;;-2.93;64.66
61568;BME280;47462;59.172;17.196;2023-02-03T21:50:31;102201.28;;;-2.82;64.71
61568;BME280;47462;59.172;17.196;2023-02-03T21:55:36;102189.69;;;-2.75;64.50
61568;BME280;47462;59.172;17.196;2023-02-03T21:58:31;102190.31;;;-2.63;64.14
61568;BME280;47462;59.172;17.196;2023-02-03T22:01:00;102152.16;;;-2.76;64.17
61568;BME280;47462;59.172;17.196;2023-02-03T22:03:36;102200.41;;;-2.48;64.32
61568;BME280;47462;59.172;17.196;2023-02-03T22:08:44;102191.38;;;-2.58;64.53
61568;BME280;47462;59.172;17.196;2023-02-03T22:11:11;102191.31;;;-2.59;64.21
61568;BME280;47462;59.172;17.196;2023-02-03T22:13:37;102229.47;;;-2.46;64.76
61568;BME280;47462;59.172;17.196;2023-02-03T22:16:04;102222.50;;;-2.48;64.47
61568;BME280;47462;59.172;17.196;2023-02-03T22:18:30;102232.97;;;-2.44;64.44
61568;BME280;47462;59.172;17.196;2023-02-03T22:20:58;102252.56;;;-2.44;64.46
61568;BME280;47462;59.172;17.196;2023-02-03T22:23:24;102231.97;;;-2.64;64.73
61568;BME280;47462;59.172;17.196;2023-02-03T22:25:50;102213.22;;;-2.64;64.44
61568;BME280;47462;59.172;17.196;2023-02-03T22:28:16;102234.47;;;-2.65;64.58
61568;BME280;47462;59.172;17.196;2023-02-03T22:30:41;102227.19;;;-2.58;64.38
61568;BME280;47462;59.172;17.196;2023-02-03T22:33:08;102221.03;;;-2.61;64.17
61568;BME280;47462;59.172;17.196;2023-02-03T22:35:33;102237.78;;;-2.50;64.22
61568;BME280;47462;59.172;17.196;2023-02-03T22:37:59;102274.69;;;-2.45;63.87
61568;BME280;47462;59.172;17.196;2023-02-03T22:40:25;102285.72;;;-2.46;63.53
61568;BME280;47462;59.172;17.196;2023-02-03T22:42:51;102294.16;;;-2.47;63.93
61568;BME280;47462;59.172;17.196;2023-02-03T22:45:18;102262.72;;;-2.62;63.44
61568;BME280;47462;59.172;17.196;2023-02-03T22:47:45;102285.56;;;-2.65;63.44
61568;BME280;47462;59.172;17.196;2023-02-03T22:50:12;102289.81;;;-2.66;63.55
61568;BME280;47462;59.172;17.196;2023-02-03T22:52:38;102292.47;;;-2.81;63.63
61568;BME280;47462;59.172;17.196;2023-02-03T22:55:07;102304.69;;;-2.75;63.32
61568;BME280;47462;59.172;17.196;2023-02-03T22:57:33;102315.53;;;-2.63;63.36
61568;BME280;47462;59.172;17.196;2023-02-03T22:59:59;102302.69;;;-2.81;63.65
61568;BME280;47462;59.172;17.196;2023-02-03T23:02:28;102301.00;;;-2.80;63.71
61568;BME280;47462;59.172;17.196;2023-02-03T23:04:54;102325.84;;;-2.61;63.65
61568;BME280;47462;59.172;17.196;2023-02-03T23:07:19;102313.06;;;-2.78;63.41
61568;BME280;47462;59.172;17.196;2023-02-03T23:09:45;102312.13;;;-2.80;63.58
61568;BME280;47462;59.172;17.196;2023-02-03T23:12:11;102325.19;;;-2.74;63.71
61568;BME280;47462;59.172;17.196;2023-02-03T23:14:36;102325.19;;;-2.74;63.78
61568;BME280;47462;59.172;17.196;2023-02-03T23:17:02;102309.88;;;-2.90;63.76
61568;BME280;47462;59.172;17.196;2023-02-03T23:19:27;102273.78;;;-3.13;63.83
61568;BME280;47462;59.172;17.196;2023-02-03T23:21:52;102340.38;;;-2.77;63.89
61568;BME280;47462;59.172;17.196;2023-02-03T23:24:18;102332.84;;;-2.90;63.54
61568;BME280;47462;59.172;17.196;2023-02-03T23:26:43;102353.06;;;-2.78;63.32
61568;BME280;47462;59.172;17.196;2023-02-03T23:29:09;102346.13;;;-2.81;63.43
61568;BME280;47462;59.172;17.196;2023-02-03T23:31:34;102324.84;;;-3.13;63.26
61568;BME280;47462;59.172;17.196;2023-02-03T23:33:59;102269.84;;;-3.39;62.86
61568;BME280;47462;59.172;17.196;2023-02-03T23:36:43;102350.41;;;-2.96;63.41
61568;BME280;47462;59.172;17.196;2023-02-03T23:39:09;102366.06;;;-2.90;63.75
61568;BME280;47462;59.172;17.196;2023-02-03T23:41:34;102368.63;;;-2.90;63.35
61568;BME280;47462;59.172;17.196;2023-02-03T23:43:59;102377.41;;;-2.85;63.37
61568;BME280;47462;59.172;17.196;2023-02-03T23:46:25;102350.00;;;-3.04;63.63
61568;BME280;47462;59.172;17.196;2023-02-03T23:48:51;102385.06;;;-2.85;63.65
61568;BME280;47462;59.172;17.196;2023-02-03T23:51:16;102361.66;;;-3.09;63.82
61568;BME280;47462;59.172;17.196;2023-02-03T23:53:41;102402.47;;;-2.94;64.19
61568;BME280;47462;59.172;17.196;2023-02-03T23:56:07;102413.50;;;-2.95;64.46
61568;BME280;47462;59.172;17.196;2023-02-03T23:58:32;102390.13;;;-3.18;64.22
